Louisbourg, Canada
Current Conditions -  °F | °C
As of 2:00 PM on Sunday 25 Jan 2015 (Local Time) from CYQY Reporting Station
Broken Clouds Broken Clouds  
Wind Chill: 22°   Ceiling: 2800
Heat Index: 34°   Visibility: 15mi
Dew Point: 27°   Wind: 23mph
Humidity: 75%   Direction: 260°W
Pressure: 29.2"   Gusts: 31mph
Location:  45.92°N, 59.98°W
Report Text: CYQY 251800Z 26020G27KT 15SM BKN028 01/M03 A2920 RMK SC7 SLP888
Loading
Personal Weather Stations






























Interactive Weather Map New forecast layout! Learn more

10-Day Weather Forecast

Advertisements
Track Severe Weather on mobile